createdAt,value
2022-11-10T00:02:16.404Z,88.26
2022-11-10T00:04:44.184Z,87.93
2022-11-10T00:07:12.056Z,88.31
2022-11-10T00:09:41.423Z,88.40
2022-11-10T00:12:09.290Z,87.38
2022-11-10T00:14:54.714Z,86.89
2022-11-10T00:17:22.351Z,86.39
2022-11-10T00:19:50.228Z,87.20
2022-11-10T00:22:18.057Z,86.88
2022-11-10T00:24:47.366Z,86.52
2022-11-10T00:27:15.740Z,86.59
2022-11-10T00:29:43.674Z,85.53
2022-11-10T00:32:12.038Z,85.02
2022-11-10T00:34:39.905Z,84.27
2022-11-10T00:37:07.992Z,83.81
2022-11-10T00:39:36.817Z,83.47
2022-11-10T00:42:06.327Z,83.07
2022-11-10T00:44:34.101Z,83.08
2022-11-10T00:47:02.000Z,82.91
2022-11-10T00:49:29.826Z,83.50
2022-11-10T00:51:57.843Z,83.92
2022-11-10T00:54:25.825Z,83.94
2022-11-10T00:56:53.608Z,84.15
2022-11-10T00:59:23.050Z,83.65
2022-11-10T01:01:50.843Z,83.14
2022-11-10T01:04:18.867Z,82.99
2022-11-10T01:06:48.059Z,83.46
2022-11-10T01:09:16.301Z,83.44
2022-11-10T01:11:44.124Z,82.93
2022-11-10T01:14:12.132Z,83.26
2022-11-10T01:16:41.331Z,83.47
2022-11-10T01:19:09.039Z,84.05
2022-11-10T01:21:36.760Z,84.11
2022-11-10T01:24:04.780Z,84.32
2022-11-10T01:26:32.549Z,84.11
2022-11-10T01:29:00.745Z,83.86
2022-11-10T01:31:28.506Z,83.42
2022-11-10T01:33:59.987Z,83.84
2022-11-10T01:36:27.869Z,83.61
2022-11-10T01:38:55.579Z,83.46
2022-11-10T01:41:23.594Z,82.83
2022-11-10T01:43:51.465Z,82.53
2022-11-10T01:46:19.232Z,82.65
2022-11-10T01:48:49.199Z,82.79
2022-11-10T01:51:22.083Z,82.62
2022-11-10T01:53:54.713Z,83.96
2022-11-10T01:56:25.593Z,84.11
2022-11-10T01:58:57.610Z,84.13
2022-11-10T02:01:25.825Z,83.84
2022-11-10T02:03:56.956Z,83.72
2022-11-10T02:06:29.297Z,83.08
2022-11-10T02:08:58.501Z,83.31
2022-11-10T02:11:26.476Z,83.65
2022-11-10T02:13:54.846Z,83.65
2022-11-10T02:16:23.173Z,83.80
2022-11-10T02:18:51.154Z,83.98
2022-11-10T02:21:21.523Z,84.21
2022-11-10T02:23:53.221Z,84.67
2022-11-10T02:26:24.273Z,84.19
2022-11-10T02:28:51.985Z,84.02
2022-11-10T02:31:19.768Z,83.38
2022-11-10T02:33:48.080Z,83.06
2022-11-10T02:36:15.936Z,83.63
2022-11-10T02:38:45.162Z,83.10
2022-11-10T02:41:12.957Z,82.93
2022-11-10T02:43:41.045Z,82.61
2022-11-10T02:46:08.694Z,82.50
2022-11-10T02:48:36.449Z,82.61
2022-11-10T02:51:04.272Z,83.56
2022-11-10T02:53:32.032Z,83.81
2022-11-10T02:56:01.084Z,83.68
2022-11-10T02:58:28.762Z,83.64
2022-11-10T03:00:56.642Z,83.57
2022-11-10T03:03:24.829Z,82.95
2022-11-10T03:05:52.732Z,82.25
2022-11-10T03:08:20.572Z,81.94
2022-11-10T03:10:48.476Z,81.28
2022-11-10T03:13:17.690Z,81.84
2022-11-10T03:15:45.476Z,82.46
2022-11-10T03:18:13.253Z,84.07
2022-11-10T03:20:41.045Z,84.63
2022-11-10T03:23:09.247Z,85.13
2022-11-10T03:25:38.467Z,86.03
2022-11-10T03:28:06.227Z,86.30
2022-11-10T03:30:35.525Z,86.89
2022-11-10T03:33:03.493Z,87.39
2022-11-10T03:35:31.612Z,88.27
2022-11-10T03:37:59.530Z,89.06
2022-11-10T03:40:27.464Z,89.23
2022-11-10T03:42:55.374Z,89.48
2022-11-10T03:45:23.240Z,90.00
2022-11-10T03:47:52.952Z,89.42
2022-11-10T03:50:20.928Z,89.13
2022-11-10T03:52:48.787Z,88.92
2022-11-10T03:55:18.784Z,88.34
2022-11-10T03:57:46.546Z,88.35
2022-11-10T04:00:15.617Z,88.79
2022-11-10T04:02:43.491Z,87.45
2022-11-10T04:05:30.409Z,86.01
2022-11-10T04:08:19.414Z,85.31
2022-11-10T04:10:47.409Z,85.58
2022-11-10T04:13:32.507Z,86.25
2022-11-10T04:16:00.378Z,86.00
2022-11-10T04:18:29.812Z,86.77
2022-11-10T04:21:01.667Z,87.04
2022-11-10T04:23:34.878Z,87.87
2022-11-10T04:26:22.827Z,88.51
2022-11-10T04:28:52.564Z,88.07
2022-11-10T04:31:22.344Z,88.01
2022-11-10T04:33:50.966Z,87.81
2022-11-10T04:36:21.824Z,87.37
2022-11-10T04:38:49.945Z,88.25
2022-11-10T04:41:18.566Z,88.12
2022-11-10T04:43:46.438Z,88.74
2022-11-10T04:46:24.395Z,89.00
2022-11-10T04:48:53.638Z,88.83
2022-11-10T04:51:25.765Z,88.35
2022-11-10T04:53:53.895Z,87.74
2022-11-10T04:56:23.078Z,86.84
2022-11-10T04:58:51.516Z,87.21
2022-11-10T05:01:21.493Z,87.22
2022-11-10T05:03:50.355Z,88.01
2022-11-10T05:06:19.577Z,87.86
2022-11-10T05:08:49.127Z,88.21
2022-11-10T05:11:17.865Z,88.95
2022-11-10T05:13:46.793Z,87.78
2022-11-10T05:16:15.347Z,87.70
2022-11-10T05:18:43.615Z,88.51
2022-11-10T05:21:11.585Z,87.99
2022-11-10T05:23:39.607Z,87.24
2022-11-10T05:26:10.854Z,87.06
2022-11-10T05:28:39.487Z,87.02
2022-11-10T05:31:07.766Z,86.85
2022-11-10T05:33:36.398Z,85.64
2022-11-10T05:36:04.934Z,85.82
2022-11-10T05:38:33.129Z,85.79
2022-11-10T05:41:01.070Z,85.71
2022-11-10T05:43:30.588Z,85.65
2022-11-10T05:45:58.602Z,85.01
2022-11-10T05:48:26.414Z,84.60
2022-11-10T05:50:54.389Z,84.12
2022-11-10T05:53:22.624Z,83.79
2022-11-10T05:55:50.689Z,83.87
2022-11-10T05:58:18.810Z,83.05
2022-11-10T06:00:48.105Z,83.88
2022-11-10T06:03:18.174Z,83.00
2022-11-10T06:05:47.177Z,83.31
2022-11-10T06:08:15.544Z,84.13
2022-11-10T06:10:43.520Z,84.43
2022-11-10T06:13:11.896Z,84.51
2022-11-10T06:15:40.154Z,84.86
2022-11-10T06:18:09.346Z,85.63
2022-11-10T06:20:37.191Z,86.52
2022-11-10T06:23:07.041Z,87.07
2022-11-10T06:25:37.084Z,86.76
2022-11-10T06:28:05.484Z,86.31
2022-11-10T06:30:35.407Z,85.96
2022-11-10T06:33:03.785Z,85.55
2022-11-10T06:35:33.395Z,84.79
2022-11-10T06:38:03.200Z,84.12
2022-11-10T06:40:31.948Z,83.77
2022-11-10T06:43:00.167Z,83.57
2022-11-10T06:45:29.221Z,83.30
2022-11-10T06:48:04.669Z,83.13
2022-11-10T06:50:34.576Z,83.00
2022-11-10T06:53:02.979Z,82.54
2022-11-10T06:55:31.284Z,82.17
2022-11-10T06:57:59.309Z,81.45
2022-11-10T07:00:28.405Z,81.38
2022-11-10T07:03:03.949Z,81.24
2022-11-10T07:05:35.206Z,81.33
2022-11-10T07:08:04.135Z,82.16
2022-11-10T07:10:32.325Z,82.02
2022-11-10T07:13:00.447Z,81.80
2022-11-10T07:15:28.455Z,81.85
2022-11-10T07:17:56.460Z,82.32
2022-11-10T07:20:26.044Z,82.21
2022-11-10T07:23:00.756Z,81.53
2022-11-10T07:25:29.488Z,81.95
2022-11-10T07:27:58.648Z,82.70
2022-11-10T07:30:28.004Z,82.48
2022-11-10T07:33:00.531Z,82.82
2022-11-10T07:35:29.315Z,82.87
2022-11-10T07:37:57.752Z,82.85
2022-11-10T07:40:27.095Z,82.22
2022-11-10T07:42:54.928Z,82.87
2022-11-10T07:45:22.622Z,82.90
2022-11-10T07:47:50.513Z,83.12
2022-11-10T07:50:19.005Z,83.61
2022-11-10T07:52:46.648Z,83.68
2022-11-10T07:55:14.347Z,83.72
2022-11-10T07:57:43.511Z,83.88
2022-11-10T08:00:13.468Z,83.94
2022-11-10T08:02:41.356Z,83.79
2022-11-10T08:05:09.959Z,83.35
2022-11-10T08:07:37.776Z,83.28
2022-11-10T08:10:06.051Z,83.29
2022-11-10T08:12:33.988Z,83.39
2022-11-10T08:15:03.177Z,82.96
2022-11-10T08:17:30.919Z,82.63
2022-11-10T08:19:58.581Z,82.21
2022-11-10T08:22:26.651Z,82.61
2022-11-10T08:24:54.291Z,82.36
2022-11-10T08:27:21.998Z,82.20
2022-11-10T08:29:49.730Z,81.70
2022-11-10T08:32:18.818Z,81.91
2022-11-10T08:34:46.581Z,81.52
2022-11-10T08:37:14.297Z,81.56
2022-11-10T08:39:42.153Z,81.26
2022-11-10T08:42:09.925Z,79.44
2022-11-10T08:44:37.680Z,77.98
2022-11-10T08:47:05.578Z,76.58
2022-11-10T08:49:34.851Z,75.34
2022-11-10T08:52:02.666Z,72.43
2022-11-10T08:54:30.537Z,67.48
2022-11-10T08:56:58.316Z,62.72
2022-11-10T08:59:25.917Z,58.62
2022-11-10T09:01:53.677Z,53.95
2022-11-10T09:04:21.512Z,49.90
2022-11-10T09:06:50.617Z,47.78
2022-11-10T09:09:18.491Z,46.71
2022-11-10T09:11:46.208Z,46.25
2022-11-10T09:14:14.140Z,43.39
2022-11-10T09:16:41.980Z,41.45
2022-11-10T09:19:09.879Z,38.60
2022-11-10T09:21:37.718Z,38.72
2022-11-10T09:24:08.177Z,38.67
2022-11-10T09:26:36.111Z,37.80
2022-11-10T09:29:03.913Z,35.78
2022-11-10T09:31:31.544Z,35.72
2022-11-10T09:33:59.216Z,36.05
2022-11-10T09:36:26.954Z,35.85
2022-11-10T09:38:54.639Z,36.29
2022-11-10T09:41:23.610Z,37.16
2022-11-10T09:44:02.540Z,38.64
2022-11-10T09:46:36.675Z,41.96
2022-11-10T09:49:10.673Z,44.38
2022-11-10T09:51:47.103Z,46.29
2022-11-10T09:54:30.354Z,47.67
2022-11-10T09:57:01.590Z,48.84
2022-11-10T09:59:32.239Z,49.40
2022-11-10T10:02:04.155Z,48.68
2022-11-10T10:04:51.964Z,48.71
2022-11-10T10:07:26.392Z,48.20
2022-11-10T10:10:01.935Z,47.01
2022-11-10T10:12:50.855Z,42.79
2022-11-10T10:15:29.687Z,36.47
2022-11-10T10:18:11.124Z,31.83
2022-11-10T10:20:50.818Z,29.54
2022-11-10T10:23:40.699Z,32.12
2022-11-10T10:26:16.600Z,36.99
2022-11-10T10:28:48.019Z,40.23
2022-11-10T10:31:20.978Z,41.43
2022-11-10T10:33:49.622Z,41.85
2022-11-10T10:36:20.827Z,42.00
2022-11-10T10:38:51.934Z,42.02
2022-11-10T10:41:25.207Z,42.70
2022-11-10T10:43:57.150Z,44.25
2022-11-10T10:46:28.390Z,45.89
2022-11-10T10:49:29.944Z,47.47
2022-11-10T10:52:06.840Z,47.87
2022-11-10T10:54:36.565Z,46.56
2022-11-10T10:57:07.578Z,45.89
2022-11-10T10:59:36.643Z,43.90
2022-11-10T11:02:04.313Z,41.47
2022-11-10T11:04:34.836Z,39.85
2022-11-10T11:07:04.510Z,39.73
2022-11-10T11:09:40.941Z,38.91
2022-11-10T11:12:11.986Z,38.44
2022-11-10T11:14:45.862Z,38.42
2022-11-10T11:17:18.752Z,35.90
2022-11-10T11:19:46.752Z,35.52
2022-11-10T11:22:46.310Z,35.61
2022-11-10T11:25:23.549Z,36.80
2022-11-10T11:28:03.818Z,37.74
2022-11-10T11:30:47.765Z,37.98
2022-11-10T11:33:34.432Z,38.31
2022-11-10T11:36:10.340Z,39.23
2022-11-10T11:38:51.818Z,39.92
2022-11-10T11:41:31.373Z,38.27
2022-11-10T11:44:20.289Z,36.19
2022-11-10T11:47:00.302Z,35.28
2022-11-10T11:50:00.087Z,35.61
2022-11-10T11:52:36.044Z,35.21
2022-11-10T11:55:14.849Z,33.94
2022-11-10T11:58:00.143Z,35.43
2022-11-10T12:00:30.261Z,36.84
2022-11-10T12:03:23.094Z,38.79
2022-11-10T12:05:59.058Z,39.75
2022-11-10T12:08:37.670Z,39.17
2022-11-10T12:11:11.587Z,40.94
2022-11-10T12:13:50.026Z,42.60
2022-11-10T12:16:23.852Z,42.81
2022-11-10T12:19:05.491Z,41.11
2022-11-10T12:21:43.481Z,42.31
2022-11-10T12:24:46.271Z,42.43
2022-11-10T12:27:18.842Z,43.16
2022-11-10T12:29:52.267Z,44.66
2022-11-10T12:32:26.889Z,45.71
2022-11-10T12:35:00.199Z,45.77
2022-11-10T12:37:33.234Z,45.64
2022-11-10T12:40:06.810Z,44.61
2022-11-10T12:42:38.780Z,43.71
2022-11-10T12:45:09.682Z,42.07
2022-11-10T12:47:43.082Z,42.01
2022-11-10T12:50:35.233Z,42.44
2022-11-10T12:53:06.904Z,43.66
2022-11-10T12:55:39.540Z,45.04
2022-11-10T12:58:07.956Z,44.16
2022-11-10T13:00:42.693Z,45.18
2022-11-10T13:03:16.151Z,45.89
2022-11-10T13:05:46.232Z,44.93
2022-11-10T13:08:34.120Z,45.09
2022-11-10T13:11:06.510Z,45.48
2022-11-10T13:13:46.465Z,45.71
2022-11-10T13:16:49.454Z,47.44
2022-11-10T13:19:52.891Z,48.32
2022-11-10T13:22:32.748Z,47.68
2022-11-10T13:25:38.780Z,48.74
2022-11-10T13:28:09.772Z,48.96
2022-11-10T13:30:46.049Z,49.07
2022-11-10T13:33:36.940Z,49.94
2022-11-10T13:36:06.657Z,51.18
2022-11-10T13:38:40.036Z,51.65
2022-11-10T13:41:25.231Z,51.26
2022-11-10T13:43:54.508Z,52.50
2022-11-10T13:46:32.176Z,51.56
2022-11-10T13:49:47.393Z,51.71
2022-11-10T13:52:20.246Z,51.04
2022-11-10T13:55:03.680Z,52.02
2022-11-10T13:57:36.431Z,52.29
2022-11-10T14:00:24.501Z,51.60
2022-11-10T14:02:55.051Z,52.94
2022-11-10T14:06:04.730Z,51.52
2022-11-10T14:08:47.243Z,52.11
2022-11-10T14:11:20.776Z,51.86
2022-11-10T14:13:53.879Z,52.39
2022-11-10T14:16:24.206Z,52.45
2022-11-10T14:18:58.899Z,53.21
2022-11-10T14:21:33.368Z,54.11
2022-11-10T14:24:12.344Z,53.51
2022-11-10T14:26:43.923Z,53.55
2022-11-10T14:29:34.648Z,53.63
2022-11-10T14:32:05.588Z,54.68
2022-11-10T14:34:41.847Z,53.89
2022-11-10T14:37:16.626Z,53.55
2022-11-10T14:39:45.859Z,53.73
2022-11-10T14:42:20.291Z,54.13
2022-11-10T14:44:48.589Z,54.65
2022-11-10T14:47:28.244Z,54.54
2022-11-10T14:50:17.147Z,54.85
2022-11-10T14:52:48.012Z,55.68
2022-11-10T14:55:20.733Z,56.84
2022-11-10T14:57:51.652Z,58.26
2022-11-10T15:00:25.100Z,59.16
2022-11-10T15:02:54.210Z,58.71
2022-11-10T15:05:22.795Z,58.67
2022-11-10T15:07:54.649Z,59.53
2022-11-10T15:10:26.563Z,60.26
2022-11-10T15:13:06.118Z,60.20
2022-11-10T15:15:33.812Z,61.68
2022-11-10T15:18:01.513Z,61.38
2022-11-10T15:20:40.177Z,62.29
2022-11-10T15:23:22.503Z,63.06
2022-11-10T15:25:53.351Z,64.00
2022-11-10T15:28:29.045Z,63.46
2022-11-10T15:30:59.854Z,63.20
2022-11-10T15:33:31.264Z,62.86
2022-11-10T15:36:15.915Z,63.75
2022-11-10T15:38:43.651Z,64.24
2022-11-10T15:41:17.341Z,64.71
2022-11-10T15:43:45.095Z,64.32
2022-11-10T15:46:18.937Z,64.44
2022-11-10T15:48:49.594Z,64.00
2022-11-10T15:51:24.672Z,64.35
2022-11-10T15:53:54.667Z,64.75
2022-11-10T15:56:25.826Z,64.73
2022-11-10T15:59:00.574Z,64.90
2022-11-10T16:01:30.000Z,65.16
2022-11-10T16:03:58.001Z,65.64
2022-11-10T16:06:25.670Z,66.02
2022-11-10T16:08:53.430Z,66.01
2022-11-10T16:11:24.625Z,66.26
2022-11-10T16:13:53.105Z,66.61
2022-11-10T16:16:23.787Z,66.89
2022-11-10T16:18:51.753Z,66.92
2022-11-10T16:21:21.800Z,66.96
2022-11-10T16:23:49.867Z,67.27
2022-11-10T16:26:21.162Z,67.35
2022-11-10T16:28:51.133Z,67.30
2022-11-10T16:31:21.864Z,67.37
2022-11-10T16:33:50.386Z,67.73
2022-11-10T16:36:25.741Z,67.81
2022-11-10T16:38:54.509Z,67.99
2022-11-10T16:41:22.619Z,68.58
2022-11-10T16:43:51.718Z,68.84
2022-11-10T16:46:22.365Z,68.89
2022-11-10T16:48:51.880Z,69.39
2022-11-10T16:51:19.797Z,70.58
2022-11-10T16:53:47.678Z,70.66
2022-11-10T16:56:16.803Z,70.49
2022-11-10T16:58:44.416Z,70.77
2022-11-10T17:01:19.729Z,70.07
2022-11-10T17:03:50.447Z,70.18
2022-11-10T17:06:19.742Z,70.55
2022-11-10T17:08:48.571Z,70.90
2022-11-10T17:11:16.357Z,70.76
2022-11-10T17:13:44.661Z,70.67
2022-11-10T17:16:22.018Z,70.78
2022-11-10T17:18:50.627Z,70.87
2022-11-10T17:21:19.430Z,71.43
2022-11-10T17:23:47.247Z,71.22
2022-11-10T17:26:17.216Z,71.04
2022-11-10T17:28:44.962Z,71.05
2022-11-10T17:31:14.230Z,70.83
2022-11-10T17:33:41.859Z,70.96
2022-11-10T17:36:14.995Z,70.97
2022-11-10T17:38:43.921Z,71.23
2022-11-10T17:41:16.329Z,71.46
2022-11-10T17:43:45.955Z,71.39
2022-11-10T17:46:15.873Z,71.37
2022-11-10T17:48:44.086Z,71.29
2022-11-10T17:51:19.202Z,71.11
2022-11-10T17:53:46.983Z,71.27
2022-11-10T17:56:15.027Z,71.36
2022-11-10T17:58:42.726Z,71.59
2022-11-10T18:01:16.640Z,72.18
2022-11-10T18:03:44.377Z,72.65
2022-11-10T18:06:14.725Z,72.71
2022-11-10T18:08:42.948Z,72.59
2022-11-10T18:11:11.581Z,72.64
2022-11-10T18:13:40.431Z,72.72
2022-11-10T18:16:09.561Z,72.86
2022-11-10T18:18:39.034Z,72.81
2022-11-10T18:21:07.360Z,72.61
2022-11-10T18:23:35.095Z,72.21
2022-11-10T18:26:06.991Z,71.68
2022-11-10T18:28:35.089Z,71.71
2022-11-10T18:31:07.481Z,71.74
2022-11-10T18:33:35.133Z,72.05
2022-11-10T18:36:05.037Z,72.53
2022-11-10T18:38:32.963Z,72.65
2022-11-10T18:41:24.463Z,72.53
2022-11-10T18:43:52.333Z,73.07
2022-11-10T18:46:20.051Z,73.72
2022-11-10T18:48:47.761Z,73.46
2022-11-10T18:51:17.110Z,73.38
2022-11-10T18:53:44.884Z,73.46
2022-11-10T18:56:14.251Z,73.73
2022-11-10T18:58:42.439Z,73.55
2022-11-10T19:01:11.724Z,73.71
2022-11-10T19:03:39.441Z,73.34
2022-11-10T19:06:10.562Z,74.08
2022-11-10T19:08:40.352Z,74.74
2022-11-10T19:11:09.311Z,74.63
2022-11-10T19:13:37.785Z,74.61
2022-11-10T19:16:07.613Z,74.46
2022-11-10T19:18:35.291Z,74.59
2022-11-10T19:21:06.436Z,74.70
2022-11-10T19:23:34.645Z,74.68
2022-11-10T19:26:04.674Z,74.70
2022-11-10T19:28:32.730Z,75.05
2022-11-10T19:31:01.445Z,75.24
2022-11-10T19:33:30.470Z,74.92
2022-11-10T19:36:03.254Z,75.35
2022-11-10T19:38:31.060Z,75.95
2022-11-10T19:40:59.116Z,76.46
2022-11-10T19:43:30.768Z,75.85
2022-11-10T19:46:01.970Z,75.25
2022-11-10T19:48:30.370Z,75.24
2022-11-10T19:51:00.370Z,75.25
2022-11-10T19:53:28.242Z,75.91
2022-11-10T19:56:01.640Z,76.29
2022-11-10T19:58:31.322Z,76.59
2022-11-10T20:01:00.096Z,76.79
2022-11-10T20:03:29.942Z,76.23
2022-11-10T20:06:01.454Z,77.17
2022-11-10T20:08:29.735Z,77.22
2022-11-10T20:11:01.212Z,76.43
2022-11-10T20:13:30.761Z,76.37
2022-11-10T20:15:58.399Z,75.59
2022-11-10T20:18:26.052Z,75.31
2022-11-10T20:20:53.724Z,75.96
2022-11-10T20:23:21.680Z,76.36
2022-11-10T20:25:49.442Z,76.25
2022-11-10T20:28:17.088Z,75.93
2022-11-10T20:30:46.049Z,76.06
2022-11-10T20:33:13.736Z,76.13
2022-11-10T20:35:42.903Z,76.39
2022-11-10T20:38:11.109Z,76.40
2022-11-10T20:40:44.470Z,76.71
2022-11-10T20:43:13.985Z,77.07
2022-11-10T20:45:41.735Z,77.16
2022-11-10T20:48:10.765Z,76.24
2022-11-10T20:50:40.889Z,76.08
2022-11-10T20:53:08.498Z,75.55
2022-11-10T20:55:53.204Z,75.82
2022-11-10T20:58:21.336Z,75.75
2022-11-10T21:00:48.945Z,76.09
2022-11-10T21:03:17.896Z,75.95
2022-11-10T21:05:45.908Z,75.84
2022-11-10T21:08:13.604Z,75.96
2022-11-10T21:10:41.369Z,75.94
2022-11-10T21:13:08.082Z,75.85
2022-11-10T21:15:38.289Z,75.87
2022-11-10T21:18:05.967Z,76.38
2022-11-10T21:20:35.327Z,76.84
2022-11-10T21:23:03.673Z,76.99
2022-11-10T21:25:31.496Z,76.70
2022-11-10T21:27:59.162Z,76.51
2022-11-10T21:30:26.787Z,76.45
2022-11-10T21:32:54.398Z,76.55
2022-11-10T21:35:24.096Z,76.42
2022-11-10T21:37:54.588Z,75.87
2022-11-10T21:40:22.208Z,76.59
2022-11-10T21:42:54.934Z,77.83
2022-11-10T21:45:22.568Z,78.78
2022-11-10T21:47:50.213Z,79.51
2022-11-10T21:50:18.769Z,79.26
2022-11-10T21:52:46.337Z,78.38
2022-11-10T21:55:15.391Z,78.51
2022-11-10T21:57:43.104Z,78.09
2022-11-10T22:00:12.101Z,77.21
2022-11-10T22:02:39.703Z,77.63
2022-11-10T22:05:07.734Z,77.81
2022-11-10T22:07:35.353Z,77.89
2022-11-10T22:10:20.689Z,77.76
2022-11-10T22:13:07.190Z,77.68
2022-11-10T22:15:52.405Z,77.65
2022-11-10T22:18:38.327Z,77.60
2022-11-10T22:21:06.856Z,77.94
2022-11-10T22:23:52.242Z,77.43
2022-11-10T22:26:20.423Z,77.29
2022-11-10T22:28:49.449Z,76.62
2022-11-10T22:31:17.084Z,76.32
2022-11-10T22:33:44.809Z,76.66
2022-11-10T22:36:14.169Z,76.35
2022-11-10T22:38:42.595Z,76.56
2022-11-10T22:41:32.176Z,76.92
2022-11-10T22:44:04.653Z,77.29
2022-11-10T22:46:34.095Z,77.18
2022-11-10T22:49:02.300Z,76.97
2022-11-10T22:51:32.807Z,77.00
2022-11-10T22:54:01.288Z,77.42
2022-11-10T22:56:29.808Z,77.54
2022-11-10T22:59:00.116Z,77.12
2022-11-10T23:01:29.679Z,77.24
2022-11-10T23:03:58.518Z,77.28
2022-11-10T23:06:26.162Z,76.87
2022-11-10T23:08:54.236Z,76.52
2022-11-10T23:11:23.949Z,76.24
2022-11-10T23:13:52.008Z,76.99
2022-11-10T23:16:21.659Z,77.45
2022-11-10T23:18:52.349Z,76.77
2022-11-10T23:21:22.549Z,76.51
2022-11-10T23:23:50.830Z,76.67
2022-11-10T23:26:20.012Z,76.90
2022-11-10T23:28:48.006Z,76.57
2022-11-10T23:31:17.841Z,76.61
2022-11-10T23:33:47.319Z,76.32
2022-11-10T23:36:18.388Z,75.98
2022-11-10T23:38:47.048Z,76.11
2022-11-10T23:41:16.140Z,76.58
2022-11-10T23:43:44.222Z,76.78
2022-11-10T23:46:13.019Z,77.17
2022-11-10T23:48:42.015Z,77.98
2022-11-10T23:51:12.377Z,77.85
2022-11-10T23:53:41.826Z,78.19
2022-11-10T23:56:13.581Z,78.49
2022-11-10T23:58:41.819Z,78.64
